Saint Benedict, Oregon
Current Conditions -  °F | °C
As of 5:26 PM on Saturday 25 Oct 2014 (Local Time) from KUAO Reporting Station
Moderate Rain Moderate Rain  
Wind Chill: 56°   Ceiling: 3300
Heat Index: 56°   Visibility: 2.5mi
Dew Point: 53°   Wind: 17mph
Humidity: 90%   Direction: 210°SSW
Pressure: 29.57"   Gusts: 38mph
Location:  45.05°N, 122.76°W
Report Text: KUAO 260026Z AUTO 21015G33KT 2 1/2SM RA BR FEW016 BKN033 OVC042 13/12 A2957 RMK AO2 PK WND 18034/0008 RAB2358 PRESRR P0006 T01330117 $
Loading
Personal Weather Stations






























Interactive Weather Map
Tropical Storm Tracking
New forecast layout! Learn more

10-Day Weather Forecast

Advertisements
Track Severe Weather on mobile